sensor_id;sensor_type;location;lat;lon;timestamp;pressure;altitude;pressure_sealevel;temperature;humidity
19112;BME280;9688;51.906;8.376;2022-11-15T00:01:32;100193.66;;;11.55;77.43
19112;BME280;9688;51.906;8.376;2022-11-15T00:04:18;100198.13;;;11.54;76.92
19112;BME280;9688;51.906;8.376;2022-11-15T00:07:05;100191.88;;;11.55;76.59
19112;BME280;9688;51.906;8.376;2022-11-15T00:09:50;100195.31;;;11.57;76.34
19112;BME280;9688;51.906;8.376;2022-11-15T00:12:36;100195.25;;;11.59;77.41
19112;BME280;9688;51.906;8.376;2022-11-15T00:15:21;100189.81;;;11.62;76.98
19112;BME280;9688;51.906;8.376;2022-11-15T00:18:12;100189.66;;;11.65;77.02
19112;BME280;9688;51.906;8.376;2022-11-15T00:21:05;100185.03;;;11.69;76.89
19112;BME280;9688;51.906;8.376;2022-11-15T00:23:51;100191.13;;;11.71;77.23
19112;BME280;9688;51.906;8.376;2022-11-15T00:26:36;100188.31;;;11.74;76.65
19112;BME280;9688;51.906;8.376;2022-11-15T00:29:22;100189.16;;;11.74;76.26
19112;BME280;9688;51.906;8.376;2022-11-15T00:32:08;100184.66;;;11.76;76.75
19112;BME280;9688;51.906;8.376;2022-11-15T00:34:54;100183.66;;;11.79;76.21
19112;BME280;9688;51.906;8.376;2022-11-15T00:37:41;100184.34;;;11.82;76.96
19112;BME280;9688;51.906;8.376;2022-11-15T00:40:27;100181.56;;;11.86;77.11
19112;BME280;9688;51.906;8.376;2022-11-15T00:43:12;100178.88;;;11.87;76.72
19112;BME280;9688;51.906;8.376;2022-11-15T00:45:58;100174.25;;;11.91;76.58
19112;BME280;9688;51.906;8.376;2022-11-15T00:48:44;100175.88;;;11.93;76.60
19112;BME280;9688;51.906;8.376;2022-11-15T00:51:29;100170.44;;;11.96;76.92
19112;BME280;9688;51.906;8.376;2022-11-15T00:54:16;100164.22;;;11.97;77.07
19112;BME280;9688;51.906;8.376;2022-11-15T00:57:02;100158.81;;;11.99;77.24
19112;BME280;9688;51.906;8.376;2022-11-15T00:59:48;100162.25;;;12.01;77.28
19112;BME280;9688;51.906;8.376;2022-11-15T01:02:34;100163.81;;;12.05;76.39
19112;BME280;9688;51.906;8.376;2022-11-15T01:05:20;100158.50;;;12.05;76.89
19112;BME280;9688;51.906;8.376;2022-11-15T01:08:05;100158.50;;;12.05;77.05
19112;BME280;9688;51.906;8.376;2022-11-15T01:10:52;100144.50;;;12.03;76.99
19112;BME280;9688;51.906;8.376;2022-11-15T01:13:39;100139.94;;;12.05;78.13
19112;BME280;9688;51.906;8.376;2022-11-15T01:16:24;100131.84;;;12.08;77.94
19112;BME280;9688;51.906;8.376;2022-11-15T01:19:10;100124.78;;;12.09;78.37
19112;BME280;9688;51.906;8.376;2022-11-15T01:21:56;100131.72;;;12.11;78.45
19112;BME280;9688;51.906;8.376;2022-11-15T01:24:41;100134.19;;;12.14;78.39
19112;BME280;9688;51.906;8.376;2022-11-15T01:27:28;100126.94;;;12.18;79.07
19112;BME280;9688;51.906;8.376;2022-11-15T01:30:17;100115.31;;;12.20;78.18
19112;BME280;9688;51.906;8.376;2022-11-15T01:33:03;100114.19;;;12.24;78.60
19112;BME280;9688;51.906;8.376;2022-11-15T01:35:48;100112.44;;;12.25;79.26
19112;BME280;9688;51.906;8.376;2022-11-15T01:38:34;100108.72;;;12.27;79.12
19112;BME280;9688;51.906;8.376;2022-11-15T01:41:21;100091.13;;;12.26;79.57
19112;BME280;9688;51.906;8.376;2022-11-15T01:44:37;100103.25;;;12.15;80.24
19112;BME280;9688;51.906;8.376;2022-11-15T01:47:26;100105.97;;;12.13;80.61
19112;BME280;9688;51.906;8.376;2022-11-15T01:50:20;100112.44;;;12.08;80.29
19112;BME280;9688;51.906;8.376;2022-11-15T01:53:07;100112.44;;;12.08;81.23
19112;BME280;9688;51.906;8.376;2022-11-15T01:55:55;100110.66;;;12.08;81.12
19112;BME280;9688;51.906;8.376;2022-11-15T01:58:42;100103.31;;;12.13;81.03
19112;BME280;9688;51.906;8.376;2022-11-15T02:01:32;100099.75;;;12.14;81.27
19112;BME280;9688;51.906;8.376;2022-11-15T02:04:22;100095.38;;;12.13;81.12
19112;BME280;9688;51.906;8.376;2022-11-15T02:07:13;100097.09;;;12.14;81.80
19112;BME280;9688;51.906;8.376;2022-11-15T02:10:06;100104.03;;;12.17;81.72
19112;BME280;9688;51.906;8.376;2022-11-15T02:12:53;100097.78;;;12.18;82.30
19112;BME280;9688;51.906;8.376;2022-11-15T02:15:46;100102.84;;;12.22;81.68
19112;BME280;9688;51.906;8.376;2022-11-15T02:18:40;100101.91;;;12.23;82.45
19112;BME280;9688;51.906;8.376;2022-11-15T02:21:31;100094.63;;;12.27;81.92
19112;BME280;9688;51.906;8.376;2022-11-15T02:24:50;100090.97;;;12.30;82.77
19112;BME280;9688;51.906;8.376;2022-11-15T02:28:10;100088.84;;;12.36;83.08
19112;BME280;9688;51.906;8.376;2022-11-15T02:31:05;100085.94;;;12.41;82.43
19112;BME280;9688;51.906;8.376;2022-11-15T02:33:58;100089.34;;;12.43;82.96
19112;BME280;9688;51.906;8.376;2022-11-15T02:36:56;100078.50;;;12.47;83.02
19112;BME280;9688;51.906;8.376;2022-11-15T02:39:49;100079.97;;;12.53;82.78
19112;BME280;9688;51.906;8.376;2022-11-15T02:42:40;100079.69;;;12.58;82.96
19112;BME280;9688;51.906;8.376;2022-11-15T02:45:51;100079.63;;;12.59;82.73
19112;BME280;9688;51.906;8.376;2022-11-15T02:48:42;100080.31;;;12.63;82.83
19112;BME280;9688;51.906;8.376;2022-11-15T02:51:28;100079.28;;;12.65;83.42
19112;BME280;9688;51.906;8.376;2022-11-15T02:54:19;100079.03;;;12.70;83.63
19112;BME280;9688;51.906;8.376;2022-11-15T02:57:11;100075.19;;;12.76;84.09
19112;BME280;9688;51.906;8.376;2022-11-15T03:00:08;100074.03;;;12.80;84.01
19112;BME280;9688;51.906;8.376;2022-11-15T03:03:16;100070.47;;;12.81;83.98
19112;BME280;9688;51.906;8.376;2022-11-15T03:06:19;100068.50;;;12.84;84.67
19112;BME280;9688;51.906;8.376;2022-11-15T03:09:09;100071.06;;;12.86;84.47
19112;BME280;9688;51.906;8.376;2022-11-15T03:12:04;100069.09;;;12.89;84.38
19112;BME280;9688;51.906;8.376;2022-11-15T03:14:56;100066.34;;;12.91;84.71
19112;BME280;9688;51.906;8.376;2022-11-15T03:17:47;100067.09;;;12.93;84.77
19112;BME280;9688;51.906;8.376;2022-11-15T03:20:35;100076.75;;;12.94;84.33
19112;BME280;9688;51.906;8.376;2022-11-15T03:23:22;100071.31;;;12.97;84.78
19112;BME280;9688;51.906;8.376;2022-11-15T03:26:11;100077.28;;;13.01;84.15
19112;BME280;9688;51.906;8.376;2022-11-15T03:29:01;100071.13;;;13.00;84.66
19112;BME280;9688;51.906;8.376;2022-11-15T03:31:58;100074.63;;;13.01;84.50
19112;BME280;9688;51.906;8.376;2022-11-15T03:34:49;100070.78;;;13.06;84.46
19112;BME280;9688;51.906;8.376;2022-11-15T03:37:48;100083.09;;;13.07;84.72
19112;BME280;9688;51.906;8.376;2022-11-15T03:40:38;100078.63;;;13.08;84.91
19112;BME280;9688;51.906;8.376;2022-11-15T03:43:30;100078.56;;;13.09;84.69
19112;BME280;9688;51.906;8.376;2022-11-15T03:46:24;100073.25;;;13.09;85.02
19112;BME280;9688;51.906;8.376;2022-11-15T03:49:14;100079.22;;;13.13;84.49
19112;BME280;9688;51.906;8.376;2022-11-15T03:52:03;100071.19;;;13.14;84.64
19112;BME280;9688;51.906;8.376;2022-11-15T03:54:51;100070.34;;;13.14;84.67
19112;BME280;9688;51.906;8.376;2022-11-15T03:57:39;100071.00;;;13.17;85.00
19112;BME280;9688;51.906;8.376;2022-11-15T04:00:25;100074.44;;;13.20;84.79
19112;BME280;9688;51.906;8.376;2022-11-15T04:03:11;100080.59;;;13.20;84.58
19112;BME280;9688;51.906;8.376;2022-11-15T04:05:56;100073.66;;;13.17;85.01
19112;BME280;9688;51.906;8.376;2022-11-15T04:08:42;100063.03;;;13.17;85.00
19112;BME280;9688;51.906;8.376;2022-11-15T04:11:27;100062.97;;;13.19;85.23
19112;BME280;9688;51.906;8.376;2022-11-15T04:14:14;100064.56;;;13.22;84.86
19112;BME280;9688;51.906;8.376;2022-11-15T04:16:59;100062.59;;;13.25;84.49
19112;BME280;9688;51.906;8.376;2022-11-15T04:19:45;100059.88;;;13.27;84.48
19112;BME280;9688;51.906;8.376;2022-11-15T04:22:52;100065.19;;;13.27;84.62
19112;BME280;9688;51.906;8.376;2022-11-15T04:25:56;100060.88;;;13.24;84.71
19112;BME280;9688;51.906;8.376;2022-11-15T04:28:43;100062.59;;;13.25;84.84
19112;BME280;9688;51.906;8.376;2022-11-15T04:31:44;100062.69;;;13.24;84.86
19112;BME280;9688;51.906;8.376;2022-11-15T04:34:30;100075.19;;;13.22;84.86
19112;BME280;9688;51.906;8.376;2022-11-15T04:37:16;100082.28;;;13.21;84.91
19112;BME280;9688;51.906;8.376;2022-11-15T04:40:08;100076.31;;;13.17;85.05
19112;BME280;9688;51.906;8.376;2022-11-15T04:42:54;100082.72;;;13.13;85.41
19112;BME280;9688;51.906;8.376;2022-11-15T04:45:39;100081.03;;;13.12;85.26
19112;BME280;9688;51.906;8.376;2022-11-15T04:48:26;100071.19;;;13.14;85.49
19112;BME280;9688;51.906;8.376;2022-11-15T04:51:11;100066.13;;;13.10;85.52
19112;BME280;9688;51.906;8.376;2022-11-15T04:53:56;100063.47;;;13.10;85.24
19112;BME280;9688;51.906;8.376;2022-11-15T04:56:42;100066.91;;;13.12;85.21
19112;BME280;9688;51.906;8.376;2022-11-15T04:59:27;100069.63;;;13.10;85.49
19112;BME280;9688;51.906;8.376;2022-11-15T05:02:13;100067.09;;;13.09;85.14
19112;BME280;9688;51.906;8.376;2022-11-15T05:04:59;100061.00;;;13.07;85.77
19112;BME280;9688;51.906;8.376;2022-11-15T05:07:44;100068.56;;;12.99;85.53
19112;BME280;9688;51.906;8.376;2022-11-15T05:10:29;100066.16;;;12.94;85.85
19112;BME280;9688;51.906;8.376;2022-11-15T05:13:14;100065.22;;;12.95;85.84
19112;BME280;9688;51.906;8.376;2022-11-15T05:16:00;100062.66;;;12.93;86.20
19112;BME280;9688;51.906;8.376;2022-11-15T05:18:45;100071.63;;;12.91;86.32
19112;BME280;9688;51.906;8.376;2022-11-15T05:21:33;100070.59;;;12.93;86.35
19112;BME280;9688;51.906;8.376;2022-11-15T05:24:19;100067.88;;;12.95;85.85
19112;BME280;9688;51.906;8.376;2022-11-15T05:27:04;100068.66;;;12.97;86.31
19112;BME280;9688;51.906;8.376;2022-11-15T05:29:49;100059.81;;;12.97;86.15
19112;BME280;9688;51.906;8.376;2022-11-15T05:32:36;100064.19;;;12.98;86.09
19112;BME280;9688;51.906;8.376;2022-11-15T05:35:29;100052.75;;;12.97;86.27
19112;BME280;9688;51.906;8.376;2022-11-15T05:38:16;100056.13;;;12.99;86.08
19112;BME280;9688;51.906;8.376;2022-11-15T05:41:03;100051.59;;;13.01;86.16
19112;BME280;9688;51.906;8.376;2022-11-15T05:43:49;100045.44;;;13.01;86.08
19112;BME280;9688;51.906;8.376;2022-11-15T05:46:37;100046.28;;;13.01;86.47
19112;BME280;9688;51.906;8.376;2022-11-15T05:49:27;100052.28;;;13.05;86.19
19112;BME280;9688;51.906;8.376;2022-11-15T05:52:16;100044.31;;;13.05;86.42
19112;BME280;9688;51.906;8.376;2022-11-15T05:55:08;100049.91;;;13.00;86.06
19112;BME280;9688;51.906;8.376;2022-11-15T05:57:54;100043.66;;;13.01;86.18
19112;BME280;9688;51.906;8.376;2022-11-15T06:00:39;100049.03;;;13.00;86.04
19112;BME280;9688;51.906;8.376;2022-11-15T06:03:27;100051.78;;;12.98;86.37
19112;BME280;9688;51.906;8.376;2022-11-15T06:06:13;100053.78;;;12.94;86.39
19112;BME280;9688;51.906;8.376;2022-11-15T06:08:58;100047.75;;;12.91;86.93
19112;BME280;9688;51.906;8.376;2022-11-15T06:11:45;100046.00;;;12.91;86.64
19112;BME280;9688;51.906;8.376;2022-11-15T06:14:30;100045.72;;;12.96;86.33
19112;BME280;9688;51.906;8.376;2022-11-15T06:17:15;100040.31;;;12.98;86.65
19112;BME280;9688;51.906;8.376;2022-11-15T06:20:05;100043.81;;;12.98;86.28
19112;BME280;9688;51.906;8.376;2022-11-15T06:22:56;100039.38;;;12.99;86.42
19112;BME280;9688;51.906;8.376;2022-11-15T06:25:42;100046.28;;;13.01;86.59
19112;BME280;9688;51.906;8.376;2022-11-15T06:28:30;100052.38;;;13.03;86.27
19112;BME280;9688;51.906;8.376;2022-11-15T06:31:15;100055.69;;;13.07;86.43
19112;BME280;9688;51.906;8.376;2022-11-15T06:34:01;100055.53;;;13.10;85.98
19112;BME280;9688;51.906;8.376;2022-11-15T06:36:47;100053.63;;;13.12;86.36
19112;BME280;9688;51.906;8.376;2022-11-15T06:39:33;100056.19;;;13.13;86.20
19112;BME280;9688;51.906;8.376;2022-11-15T06:42:19;100056.03;;;13.16;86.06
19112;BME280;9688;51.906;8.376;2022-11-15T06:45:07;100063.81;;;13.20;85.66
19112;BME280;9688;51.906;8.376;2022-11-15T06:47:53;100061.84;;;13.23;86.11
19112;BME280;9688;51.906;8.376;2022-11-15T06:50:38;100067.75;;;13.28;85.81
19112;BME280;9688;51.906;8.376;2022-11-15T06:53:27;100066.63;;;13.32;85.99
19112;BME280;9688;51.906;8.376;2022-11-15T06:56:15;100060.28;;;13.35;85.50
19112;BME280;9688;51.906;8.376;2022-11-15T06:59:03;100070.72;;;13.38;85.35
19112;BME280;9688;51.906;8.376;2022-11-15T07:01:50;100069.59;;;13.42;85.72
19112;BME280;9688;51.906;8.376;2022-11-15T07:04:36;100082.50;;;13.48;85.38
19112;BME280;9688;51.906;8.376;2022-11-15T07:07:21;100080.53;;;13.52;84.97
19112;BME280;9688;51.906;8.376;2022-11-15T07:10:08;100084.72;;;13.56;85.17
19112;BME280;9688;51.906;8.376;2022-11-15T07:12:55;100083.69;;;13.58;84.78
19112;BME280;9688;51.906;8.376;2022-11-15T07:15:41;100086.16;;;13.61;85.04
19112;BME280;9688;51.906;8.376;2022-11-15T07:18:28;100083.50;;;13.61;84.99
19112;BME280;9688;51.906;8.376;2022-11-15T07:21:14;100090.31;;;13.66;85.09
19112;BME280;9688;51.906;8.376;2022-11-15T07:23:59;100097.00;;;13.73;85.09
19112;BME280;9688;51.906;8.376;2022-11-15T07:26:45;100095.09;;;13.75;84.88
19112;BME280;9688;51.906;8.376;2022-11-15T07:29:30;100100.13;;;13.79;84.62
19112;BME280;9688;51.906;8.376;2022-11-15T07:32:16;100100.03;;;13.81;84.72
19112;BME280;9688;51.906;8.376;2022-11-15T07:35:04;100102.59;;;13.82;84.58
19112;BME280;9688;51.906;8.376;2022-11-15T07:37:55;100097.00;;;13.87;84.46
19112;BME280;9688;51.906;8.376;2022-11-15T07:40:45;100091.31;;;13.93;84.29
19112;BME280;9688;51.906;8.376;2022-11-15T07:43:32;100093.78;;;13.96;84.33
19112;BME280;9688;51.906;8.376;2022-11-15T07:46:19;100105.19;;;13.98;84.41
19112;BME280;9688;51.906;8.376;2022-11-15T07:49:09;100089.03;;;14.01;84.16
19112;BME280;9688;51.906;8.376;2022-11-15T07:51:58;100089.81;;;14.03;84.10
19112;BME280;9688;51.906;8.376;2022-11-15T07:54:46;100086.00;;;14.07;83.87
19112;BME280;9688;51.906;8.376;2022-11-15T07:57:34;100093.63;;;14.14;83.84
19112;BME280;9688;51.906;8.376;2022-11-15T08:00:21;100091.34;;;14.22;83.95
19112;BME280;9688;51.906;8.376;2022-11-15T08:03:09;100097.03;;;14.30;83.88
19112;BME280;9688;51.906;8.376;2022-11-15T08:05:58;100101.66;;;14.41;83.55
19112;BME280;9688;51.906;8.376;2022-11-15T08:08:46;100090.31;;;14.53;83.23
19112;BME280;9688;51.906;8.376;2022-11-15T08:11:32;100093.91;;;14.66;82.40
19112;BME280;9688;51.906;8.376;2022-11-15T08:14:18;100095.00;;;14.77;82.36
19112;BME280;9688;51.906;8.376;2022-11-15T08:17:05;100089.94;;;14.86;82.67
19112;BME280;9688;51.906;8.376;2022-11-15T08:19:51;100087.28;;;14.86;82.03
19112;BME280;9688;51.906;8.376;2022-11-15T08:22:36;100087.50;;;14.83;82.03
19112;BME280;9688;51.906;8.376;2022-11-15T08:25:24;100083.97;;;14.83;82.03
19112;BME280;9688;51.906;8.376;2022-11-15T08:28:10;100073.22;;;14.84;81.83
19112;BME280;9688;51.906;8.376;2022-11-15T08:30:56;100078.75;;;14.81;82.34
19112;BME280;9688;51.906;8.376;2022-11-15T08:33:43;100075.44;;;14.78;81.94
19112;BME280;9688;51.906;8.376;2022-11-15T08:36:30;100080.19;;;14.72;82.02
19112;BME280;9688;51.906;8.376;2022-11-15T08:39:17;100070.41;;;14.73;82.17
19112;BME280;9688;51.906;8.376;2022-11-15T08:42:04;100073.06;;;14.73;81.76
19112;BME280;9688;51.906;8.376;2022-11-15T08:44:52;100077.13;;;14.79;81.66
19112;BME280;9688;51.906;8.376;2022-11-15T08:47:39;100072.25;;;14.85;81.58
19112;BME280;9688;51.906;8.376;2022-11-15T08:50:26;100076.16;;;14.94;81.40
19112;BME280;9688;51.906;8.376;2022-11-15T08:53:13;100078.44;;;15.13;80.33
19112;BME280;9688;51.906;8.376;2022-11-15T08:56:00;100072.72;;;15.19;80.55
19112;BME280;9688;51.906;8.376;2022-11-15T08:58:46;100073.28;;;15.24;79.89
19112;BME280;9688;51.906;8.376;2022-11-15T09:01:32;100084.44;;;15.29;79.81
19112;BME280;9688;51.906;8.376;2022-11-15T09:04:17;100079.03;;;15.31;79.88
19112;BME280;9688;51.906;8.376;2022-11-15T09:07:03;100072.66;;;15.33;79.77
19112;BME280;9688;51.906;8.376;2022-11-15T09:09:48;100071.25;;;15.40;78.96
19112;BME280;9688;51.906;8.376;2022-11-15T09:12:34;100079.81;;;15.46;79.16
19112;BME280;9688;51.906;8.376;2022-11-15T09:15:21;100073.63;;;15.45;78.46
19112;BME280;9688;51.906;8.376;2022-11-15T09:18:07;100080.66;;;15.46;78.08
19112;BME280;9688;51.906;8.376;2022-11-15T09:20:56;100083.22;;;15.48;78.22
19112;BME280;9688;51.906;8.376;2022-11-15T09:23:42;100075.88;;;15.51;77.18
19112;BME280;9688;51.906;8.376;2022-11-15T09:26:28;100080.25;;;15.52;76.91
19112;BME280;9688;51.906;8.376;2022-11-15T09:29:13;100074.59;;;15.57;76.39
19112;BME280;9688;51.906;8.376;2022-11-15T09:32:00;100076.31;;;15.58;76.29
19112;BME280;9688;51.906;8.376;2022-11-15T09:34:48;100077.03;;;15.60;76.47
19112;BME280;9688;51.906;8.376;2022-11-15T09:37:37;100070.56;;;15.64;76.04
19112;BME280;9688;51.906;8.376;2022-11-15T09:40:27;100075.63;;;15.69;75.22
19112;BME280;9688;51.906;8.376;2022-11-15T09:43:35;100068.34;;;15.71;75.01
19112;BME280;9688;51.906;8.376;2022-11-15T09:46:32;100077.22;;;15.71;74.90
19112;BME280;9688;51.906;8.376;2022-11-15T09:49:23;100070.72;;;15.75;74.13
19112;BME280;9688;51.906;8.376;2022-11-15T09:52:10;100077.66;;;15.78;74.12
19112;BME280;9688;51.906;8.376;2022-11-15T09:54:57;100073.72;;;15.83;73.66
19112;BME280;9688;51.906;8.376;2022-11-15T09:57:50;100072.34;;;15.91;73.87
19112;BME280;9688;51.906;8.376;2022-11-15T10:00:40;100067.00;;;15.91;73.22
19112;BME280;9688;51.906;8.376;2022-11-15T10:03:30;100061.47;;;15.94;72.55
19112;BME280;9688;51.906;8.376;2022-11-15T10:06:23;100064.75;;;15.97;72.25
19112;BME280;9688;51.906;8.376;2022-11-15T10:09:15;100065.28;;;16.02;71.68
19112;BME280;9688;51.906;8.376;2022-11-15T10:12:02;100059.50;;;16.09;71.22
19112;BME280;9688;51.906;8.376;2022-11-15T10:14:50;100047.66;;;16.13;70.99
19112;BME280;9688;51.906;8.376;2022-11-15T10:18:02;100040.63;;;16.12;70.65
19112;BME280;9688;51.906;8.376;2022-11-15T10:20:54;100037.97;;;16.12;70.02
19112;BME280;9688;51.906;8.376;2022-11-15T10:23:42;100041.03;;;16.18;70.11
19112;BME280;9688;51.906;8.376;2022-11-15T10:26:28;100037.44;;;16.19;69.47
19112;BME280;9688;51.906;8.376;2022-11-15T10:29:18;100031.56;;;16.14;69.81
19112;BME280;9688;51.906;8.376;2022-11-15T10:32:05;100026.75;;;16.19;69.55
19112;BME280;9688;51.906;8.376;2022-11-15T10:34:50;100024.72;;;16.23;68.93
19112;BME280;9688;51.906;8.376;2022-11-15T10:37:37;100014.47;;;16.30;68.51
19112;BME280;9688;51.906;8.376;2022-11-15T10:40:25;100012.00;;;16.26;68.10
19112;BME280;9688;51.906;8.376;2022-11-15T10:43:16;100014.19;;;16.21;68.41
19112;BME280;9688;51.906;8.376;2022-11-15T10:46:19;100013.19;;;16.22;68.39
19112;BME280;9688;51.906;8.376;2022-11-15T10:49:15;100006.47;;;16.30;67.59
19112;BME280;9688;51.906;8.376;2022-11-15T10:52:04;100003.00;;;16.40;67.84
19112;BME280;9688;51.906;8.376;2022-11-15T10:55:02;99994.06;;;16.41;66.95
19112;BME280;9688;51.906;8.376;2022-11-15T10:57:52;99994.56;;;16.46;67.45
19112;BME280;9688;51.906;8.376;2022-11-15T11:00:38;99996.38;;;16.46;66.93
19112;BME280;9688;51.906;8.376;2022-11-15T11:03:29;99992.63;;;16.48;67.19
19112;BME280;9688;51.906;8.376;2022-11-15T11:06:17;99994.44;;;16.48;66.51
19112;BME280;9688;51.906;8.376;2022-11-15T11:09:05;99986.97;;;16.53;66.45
19112;BME280;9688;51.906;8.376;2022-11-15T11:11:51;99994.75;;;16.56;66.44
19112;BME280;9688;51.906;8.376;2022-11-15T11:14:39;99991.84;;;16.59;65.86
19112;BME280;9688;51.906;8.376;2022-11-15T11:17:32;99975.84;;;16.59;65.90
19112;BME280;9688;51.906;8.376;2022-11-15T11:20:26;99976.34;;;16.64;65.86
19112;BME280;9688;51.906;8.376;2022-11-15T11:23:39;99973.06;;;16.61;65.65
19112;BME280;9688;51.906;8.376;2022-11-15T11:26:36;99968.06;;;16.56;65.39
19112;BME280;9688;51.906;8.376;2022-11-15T11:29:36;99960.91;;;16.57;65.38
19112;BME280;9688;51.906;8.376;2022-11-15T11:32:37;99955.84;;;16.65;65.65
19112;BME280;9688;51.906;8.376;2022-11-15T11:35:29;99942.69;;;16.75;64.94
19112;BME280;9688;51.906;8.376;2022-11-15T11:38:29;99946.72;;;16.80;65.10
19112;BME280;9688;51.906;8.376;2022-11-15T11:41:27;99953.66;;;16.83;64.95
19112;BME280;9688;51.906;8.376;2022-11-15T11:44:28;99940.06;;;16.86;64.65
19112;BME280;9688;51.906;8.376;2022-11-15T11:47:21;99926.50;;;16.89;64.79
19112;BME280;9688;51.906;8.376;2022-11-15T11:50:15;99912.66;;;16.95;64.64
19112;BME280;9688;51.906;8.376;2022-11-15T11:53:05;99916.09;;;16.97;64.24
19112;BME280;9688;51.906;8.376;2022-11-15T11:55:58;99921.19;;;17.00;64.41
19112;BME280;9688;51.906;8.376;2022-11-15T11:58:50;99917.28;;;17.04;63.69
19112;BME280;9688;51.906;8.376;2022-11-15T12:01:42;99914.19;;;17.10;63.63
19112;BME280;9688;51.906;8.376;2022-11-15T12:04:32;99909.19;;;17.17;63.55
19112;BME280;9688;51.906;8.376;2022-11-15T12:07:24;99910.03;;;17.17;63.09
19112;BME280;9688;51.906;8.376;2022-11-15T12:10:20;99897.91;;;17.13;62.90
19112;BME280;9688;51.906;8.376;2022-11-15T12:13:13;99897.44;;;17.20;62.18
19112;BME280;9688;51.906;8.376;2022-11-15T12:16:08;99893.78;;;17.21;61.95
19112;BME280;9688;51.906;8.376;2022-11-15T12:19:02;99890.25;;;17.20;61.99
19112;BME280;9688;51.906;8.376;2022-11-15T12:21:52;99888.44;;;17.21;62.09
19112;BME280;9688;51.906;8.376;2022-11-15T12:24:48;99889.91;;;17.13;62.08
19112;BME280;9688;51.906;8.376;2022-11-15T12:27:38;99885.75;;;17.09;62.15
19112;BME280;9688;51.906;8.376;2022-11-15T12:30:43;99885.06;;;17.19;62.10
19112;BME280;9688;51.906;8.376;2022-11-15T12:33:34;99885.28;;;17.15;61.75
19112;BME280;9688;51.906;8.376;2022-11-15T12:36:36;99875.56;;;17.14;61.69
19112;BME280;9688;51.906;8.376;2022-11-15T12:42:58;99869.28;;;17.15;61.13
19112;BME280;9688;51.906;8.376;2022-11-15T12:45:45;99867.06;;;17.21;61.33
19112;BME280;9688;51.906;8.376;2022-11-15T12:48:58;99865.47;;;17.18;61.49
19112;BME280;9688;51.906;8.376;2022-11-15T12:52:06;99860.28;;;17.16;61.17
19112;BME280;9688;51.906;8.376;2022-11-15T12:54:59;99853.34;;;17.14;61.29
19112;BME280;9688;51.906;8.376;2022-11-15T12:57:48;99851.53;;;17.14;61.17
19112;BME280;9688;51.906;8.376;2022-11-15T13:00:37;99858.81;;;17.12;60.88
19112;BME280;9688;51.906;8.376;2022-11-15T13:03:28;99850.69;;;17.14;60.88
19112;BME280;9688;51.906;8.376;2022-11-15T13:06:39;99839.91;;;17.15;60.57
19112;BME280;9688;51.906;8.376;2022-11-15T13:09:55;99846.44;;;17.11;60.91
19112;BME280;9688;51.906;8.376;2022-11-15T13:12:56;99841.22;;;17.10;60.78
19112;BME280;9688;51.906;8.376;2022-11-15T13:15:53;99839.75;;;17.06;60.76
19112;BME280;9688;51.906;8.376;2022-11-15T13:18:40;99826.16;;;17.09;60.72
19112;BME280;9688;51.906;8.376;2022-11-15T13:21:25;99840.34;;;17.09;60.81
19112;BME280;9688;51.906;8.376;2022-11-15T13:24:29;99820.69;;;17.10;60.27
19112;BME280;9688;51.906;8.376;2022-11-15T13:27:18;99824.56;;;17.06;60.06
19112;BME280;9688;51.906;8.376;2022-11-15T13:30:25;99818.38;;;17.06;60.09
19112;BME280;9688;51.906;8.376;2022-11-15T13:33:15;99812.06;;;17.07;60.05
19112;BME280;9688;51.906;8.376;2022-11-15T13:36:05;99826.97;;;16.98;59.81
19112;BME280;9688;51.906;8.376;2022-11-15T13:38:56;99817.78;;;16.91;59.96
19112;BME280;9688;51.906;8.376;2022-11-15T13:41:47;99810.09;;;16.86;60.34
19112;BME280;9688;51.906;8.376;2022-11-15T13:44:33;99812.66;;;16.88;59.66
19112;BME280;9688;51.906;8.376;2022-11-15T13:47:20;99808.03;;;16.90;59.44
19112;BME280;9688;51.906;8.376;2022-11-15T13:50:10;99812.53;;;16.89;59.17
19112;BME280;9688;51.906;8.376;2022-11-15T13:53:00;99811.69;;;16.89;58.96
19112;BME280;9688;51.906;8.376;2022-11-15T13:55:46;99808.19;;;16.88;59.04
19112;BME280;9688;51.906;8.376;2022-11-15T13:58:32;99800.16;;;16.88;58.34
19112;BME280;9688;51.906;8.376;2022-11-15T14:01:19;99797.75;;;16.85;57.59
19112;BME280;9688;51.906;8.376;2022-11-15T14:04:11;99795.06;;;16.85;57.78
19112;BME280;9688;51.906;8.376;2022-11-15T14:06:59;99790.56;;;16.86;57.13
19112;BME280;9688;51.906;8.376;2022-11-15T14:09:46;99795.41;;;16.81;57.26
19112;BME280;9688;51.906;8.376;2022-11-15T14:12:33;99795.88;;;16.75;56.68
19112;BME280;9688;51.906;8.376;2022-11-15T14:15:27;99798.03;;;16.69;57.39
19112;BME280;9688;51.906;8.376;2022-11-15T14:18:40;99788.94;;;16.61;56.96
19112;BME280;9688;51.906;8.376;2022-11-15T14:21:27;99793.41;;;16.60;56.88
19112;BME280;9688;51.906;8.376;2022-11-15T14:24:17;99788.94;;;16.61;56.79
19112;BME280;9688;51.906;8.376;2022-11-15T14:27:22;99781.66;;;16.63;56.71
19112;BME280;9688;51.906;8.376;2022-11-15T14:30:14;99776.09;;;16.66;57.21
19112;BME280;9688;51.906;8.376;2022-11-15T14:33:01;99769.16;;;16.63;57.24
19112;BME280;9688;51.906;8.376;2022-11-15T14:35:49;99773.25;;;16.56;56.83
19112;BME280;9688;51.906;8.376;2022-11-15T14:38:36;99762.22;;;16.49;57.25
19112;BME280;9688;51.906;8.376;2022-11-15T14:41:24;99759.38;;;16.40;57.26
19112;BME280;9688;51.906;8.376;2022-11-15T14:44:12;99757.44;;;16.31;57.43
19112;BME280;9688;51.906;8.376;2022-11-15T14:47:03;99759.00;;;16.22;58.36
19112;BME280;9688;51.906;8.376;2022-11-15T14:49:49;99759.47;;;16.16;58.09
19112;BME280;9688;51.906;8.376;2022-11-15T14:52:35;99757.22;;;16.10;58.82
19112;BME280;9688;51.906;8.376;2022-11-15T14:55:25;99751.53;;;16.03;58.72
19112;BME280;9688;51.906;8.376;2022-11-15T14:58:13;99751.53;;;16.03;58.51
19112;BME280;9688;51.906;8.376;2022-11-15T15:00:58;99748.88;;;16.03;58.25
19112;BME280;9688;51.906;8.376;2022-11-15T15:03:45;99755.16;;;16.02;58.19
19112;BME280;9688;51.906;8.376;2022-11-15T15:06:33;99747.28;;;16.00;58.50